juin
16

MX LIVE : LES QUALIFICATIONS DU GP DE BELGIQUE

La pluie ayant bouleversé le déroulement des qualifications, les organisateurs ont décidé de se baser sur la série d’essais chronométrés pour déterminer la grille de départ de demain dimanche..

MX2 – Pre-Qualifying Practice – Classification
Pos Nr Rider Nat. Fed. Bike Bestlaptime in lap Diff. First Diff. Prev. Tot. Laps Speed

1 89 van Horebeek, Jeremy BEL FMB KTM 2:04.331 6 0:00.000 0:00.000 9 44.88
2 22 Ferrandis, Dylan FRA FFM Kawasaki 2:04.620 3 0:00.289 0:00.289 4 44.776
3 84 Herlings, Jeffrey NED KNMV KTM 2:06.573 7 0:02.242 0:01.953 9 44.085
4 100 Searle, Tommy GBR ACU Kawasaki 2:06.835 4 0:02.504 0:00.262 10 43.994
5 7 Tonus, Arnaud SUI FMS Yamaha 2:06.958 6 0:02.627 0:00.123 9 43.952
6 911 Tixier, Jordi FRA FFM KTM 2:07.613 6 0:03.282 0:00.655 12 43.726
7 249 Larsen, Nikolaj DEN DMU Suzuki 2:07.778 4 0:03.447 0:00.165 10 43.669
8 34 Roelants, Joel BEL FMB Kawasaki 2:08.018 6 0:03.687 0:00.240 9 43.588
9 6 Anstie, Max GBR AMA Honda 2:08.238 4 0:03.907 0:00.220 10 43.513
10 152 Petrov, Petar BUL BMF Suzuki 2:08.699 3 0:04.368 0:00.461 11 43.357
11 45 Nicholls, Jake GBR ACU KTM 2:08.805 3 0:04.474 0:00.106 11 43.321
12 77 Lupino, Alessandro ITA FMI Husqvarna 2:08.947 4 0:04.616 0:00.142 11 43.274
13 119 Pocock, Mel GBR ACU Yamaha 2:09.482 6 0:05.151 0:00.535 8 43.095
14 151 Kullas, Harri FIN SML Suzuki 2:09.572 10 0:05.241 0:00.090 11 43.065
15 51 Getteman, Jens BEL FMB Suzuki 2:09.885 7 0:05.554 0:00.313 7 42.961
16 33 Lieber, Julien BEL FMB KTM 2:09.954 4 0:05.623 0:00.069 11 42.938
17 202 Larrieu, Loic FRA FFM Husqvarna 2:10.117 3 0:05.786 0:00.163 10 42.884
18 173 Guillod, Valentin SUI FMS KTM 2:10.235 4 0:05.904 0:00.118 9 42.846
19 461 Febvre, Romain FRA FFM KTM 2:10.498 7 0:06.167 0:00.263 11 42.759
20 221 Rätsep, Priit EST EMF KTM 2:10.611 5 0:06.280 0:00.113 10 42.722
21 922 Fors, Kevin BEL FMB Yamaha 2:11.599 4 0:07.268 0:00.988 9 42.402
22 25 Coldenhoff, Glenn NED KNMV KTM 2:11.764 6 0:07.433 0:00.165 6 42.348
23 17 Butron, Jose ESP RFME KTM 2:12.343 1 0:08.012 0:00.579 10 42.163
24 91 Seewer, Jeremy SUI FMS Suzuki 2:13.480 4 0:09.149 0:01.137 10 41.804
25 600 Ivanovs, Davis LAT LAMSF Kawasaki 2:13.690 4 0:09.359 0:00.210 11 41.738
26 141 Cervellin, Andrea ITA FMI TM 2:14.118 5 0:09.787 0:00.428 11 41.605
27 101 Zeni, Samuel ITA FMI Yamaha 2:14.344 3 0:10.013 0:00.226 9 41.535
28 103 Vandueren, Kenny BEL FMB Yamaha 2:14.383 5 0:10.052 0:00.039 10 41.523
29 128 Monticelli, Ivo ITA FMI Suzuki 2:14.738 3 0:10.407 0:00.355 10 41.414
30 12 Zecchina, Simone ITA FMI Yamaha 2:15.230 8 0:10.899 0:00.492 10 41.263
31 114 Booker, Jordan GBR ACU Honda 2:16.006 8 0:11.675 0:00.776 10 41.028
32 300 Golovkin, Viacheslav RUS LAMSF Kawasaki 2:18.452 2 0:14.121 0:02.446 9 40.303
33 495 Plessers, Mathias BEL FMB Honda 2:21.693 2 0:17.362 0:03.241 9 39.381

MX1 – Pre-Qualifying Practice – Classification
Pos Nr Rider Nat. Fed. Bike Bestlaptime in lap Diff. First Diff. Prev. Tot. Laps Speed

1 25 Desalle, Clement BEL FMB Suzuki 2:02.083 8 0:00.000 0:00.000 9 45.707
2 9 de Dycker, Ken BEL FMB KTM 2:02.858 5 0:00.775 0:00.775 8 45.418
3 4 Leok, Tanel EST EMF Suzuki 2:03.068 11 0:00.985 0:00.210 11 45.341
4 24 Simpson, Shaun GBR ACU Yamaha 2:03.119 6 0:01.036 0:00.051 8 45.322
5 22 Strijbos, Kevin BEL FMB KTM 2:03.134 9 0:01.051 0:00.015 10 45.316
6 121 Boog, Xavier FRA FFM Kawasaki 2:03.210 8 0:01.127 0:00.076 10 45.289
7 222 Cairoli, Antonio ITA FMI KTM 2:03.688 11 0:01.605 0:00.478 11 45.114
8 39 Guarneri, Davide ITA FMI KTM 2:03.985 8 0:01.902 0:00.297 11 45.005
9 19 Philippaerts, David ITA FMI Yamaha 2:04.019 8 0:01.936 0:00.034 11 44.993
10 21 Paulin, Gautier FRA MCM Kawasaki 2:04.111 10 0:02.028 0:00.092 10 44.96
11 377 Pourcel, Christophe FRA FFM Kawasaki 2:04.497 9 0:02.414 0:00.386 9 44.82
12 777 Bobryshev, Evgeny RUS MFR Honda 2:06.171 5 0:04.088 0:01.674 10 44.226
13 91 Karro, Matiss LAT LAMSF KTM 2:06.464 4 0:04.381 0:00.293 10 44.123
14 999 Goncalves, Rui POR FMP Honda 2:06.805 7 0:04.722 0:00.341 11 44.005
15 61 Brakke, Herjan NED KNMV Yamaha 2:07.220 6 0:05.137 0:00.415 9 43.861
16 7 Barragan, Jonathan ESP RFME Honda 2:07.432 9 0:05.349 0:00.212 11 43.788
17 212 de Reuver, Mark NED KNMV Kawasaki 2:08.110 4 0:06.027 0:00.678 8 43.556
18 11 Pourcel, Sebastien FRA FFM Kawasaki 2:08.521 7 0:06.438 0:00.411 9 43.417
19 120 Soubeyras, Cedric FRA FFM Honda 2:08.665 7 0:06.582 0:00.144 9 43.368
20 32 Potisek, Milko FRA FFM Honda 2:10.476 4 0:08.393 0:01.811 8 42.766
21 17 Söderström, Tom SWE SVEMO Honda 2:10.609 6 0:08.526 0:00.133 6 42.723
22 10 Boissiere, Anthony FRA FFM TM 2:10.771 8 0:08.688 0:00.162 10 42.67
23 131 Aubin, Nicolas FRA FFM Honda 2:11.176 6 0:09.093 0:00.405 9 42.538
24 45 Leonce, Loic FRA FFM Yamaha 2:11.231 5 0:09.148 0:00.055 8 42.52
25 36 Bonini, Matteo ITA FMI KTM 2:13.132 2 0:11.049 0:01.901 10 41.913
26 112 Law, Jamie GBR ACU KTM 2:13.442 9 0:11.359 0:00.310 9 41.816
27 95 Justs, Augusts LAT LAMSF Honda 2:14.044 3 0:11.961 0:00.602 8 41.628
28 67 Tiainen, Santtu FIN SML Kawasaki 2:16.260 8 0:14.177 0:02.216 10 40.951
29 41 Smith, Alfie GBR ACU Yamaha 2:16.309 6 0:14.226 0:00.049 9 40.936
30 442 Van Beveren, Adrien FRA FFM Yamaha 2:16.762 2 0:14.679 0:00.453 9 40.801
31 171 Bertuzzo, Pier Filippo ITA FMI Honda 2:17.765 2 0:15.682 0:01.003 9 40.504
32 611 Cociu, Mihail MOL FMI KTM 2:18.672 2 0:16.589 0:00.907 8 40.239
33 339 Thacker, Michael USA AMA Kawasaki 2:35.285 2 0:33.202 0:16.613 7 35.934

EMX 125 – Race 1 – Classification
Pos Nr Rider Nat. Fed. Bike Time laps Diff. First Diff. Prev. Bestlaptime in lap Speed

1 243 Gajser, Tim SLO AMZS KTM 31:27.764 12 0:00.000 0:00.000 2:20.282 3 39.777
2 100 Klingsheim, Magne NOR NMF KTM 31:53.957 12 0:26.193 0:26.193 2:22.429 2 39.177
3 141 Jonass, Pauls LAT LAMSF KTM 32:01.530 12 0:33.766 0:07.573 2:24.902 5 38.509
4 411 Dercourt, Nicolas FRA FFM Yamaha 32:15.418 12 0:47.654 0:13.888 2:27.115 6 37.93
5 77 Jasikonis, Arminas LTU LMSF KTM 32:23.264 12 0:55.500 0:07.846 2:26.893 1 37.987
6 161 Brevers, Ludovic BEL FMB Yamaha 32:25.943 12 0:58.179 0:02.679 2:24.982 4 38.488
7 274 Lundgren, Anton SWE SVEMO KTM 32:46.468 12 1:18.704 0:20.525 2:25.196 6 38.431
8 79 Corneth, Jaap NED KNMV KTM 33:17.267 12 1:49.503 0:30.799 2:28.443 3 37.59
9 114 Della Mora, Alessio ITA FMI KTM 33:21.699 12 1:53.935 0:04.432 2:31.186 6 36.908
10 773 Do, Thomas FRA FFM KTM 33:26.009 12 1:58.245 0:04.310 2:31.814 6 36.756
11 64 Damiaens, Dietger BEL FMB KTM 33:27.669 12 1:59.905 0:01.660 2:31.613 6 36.804
12 997 Righi, Riccardo ITA FMI KTM 33:27.701 12 1:59.937 0:00.032 2:30.735 4 37.019
13 999 Bonini, Davide ITA FMI KTM 33:34.284 12 2:06.520 0:06.583 2:29.484 4 37.328
14 95 Furlotti, Simone ITA FMI Suzuki 33:39.801 12 2:12.037 0:05.517 2:29.783 6 37.254
15 188 Van Der Vlist, Freek NED KNMV KTM 33:46.588 12 2:18.824 0:06.787 2:32.130 12 36.679
16 101 Kovar, Vaclav CZE ACCR KTM 33:47.429 12 2:19.665 0:00.841 2:30.775 5 37.009
17 57 de Vries, Dani NED KNMV Yamaha 33:48.788 12 2:21.024 0:01.359 2:32.251 2 36.65
18 148 Eccles, Michael GBR ACU KTM 33:51.534 12 2:23.770 0:02.746 2:32.410 3 36.612
19 195 Grobben, Cedric BEL FMB Yamaha 33:51.892 12 2:24.128 0:00.358 2:31.498 3 36.832
20 108 Houzet, Dan FRA FFM KTM 33:55.163 12 2:27.399 0:03.271 2:32.650 1 36.554
21 123 Christoffersen, Lasse NOR NMF Yamaha 31:37.165 11 1 lap 1 lap 2:29.895 5 37.226
22 84 van den Mierden, Sven NED KNMV KTM 31:40.324 11 1 lap 0:03.159 2:33.731 6 36.297
23 118 van Mechelen, Joel NED KNMV KTM 31:43.873 11 1 lap 0:03.549 2:35.735 3 35.83
24 156 van Nobelen, Jordi NED KNMV KTM 31:46.186 11 1 lap 0:02.313 2:35.254 3 35.941
25 278 Vermijl, Thomas BEL FMB KTM 31:58.750 11 1 lap 0:12.564 2:34.077 8 36.216
26 200 Dunn, James GBR ACU KTM 32:03.369 11 1 lap 0:04.619 2:33.738 2 36.296
27 112 Vlaanderen, Calvin NED KNMV KTM 32:09.381 11 1 lap 0:06.012 2:31.716 2 36.779
28 183 Renkens, Nathan BEL FMB Yamaha 32:11.137 11 1 lap 0:01.756 2:30.789 5 37.005
29 16 Adams, Nicholas GBR ACU KTM 32:19.153 11 1 lap 0:08.016 2:34.442 5 36.13
30 81 Larranaga, Iker ESP RFME Suzuki 32:20.017 11 1 lap 0:00.864 2:33.782 4 36.285
31 8 Deghi, Gianluca ITA FMI KTM 32:39.289 11 1 lap 0:19.272 2:36.287 5 35.704
32 377 Krc, Martin CZE ACCR KTM 33:04.005 11 1 lap 0:24.716 2:31.636 2 36.799
33 56 Ebbers, Jeffrey NED KNMV Yamaha 33:26.968 11 1 lap 0:22.963 2:36.405 4 35.677
34 26 Deville, Dorian BEL FMB Yamaha 32:04.417 10 2 laps 1 lap 2:34.741 2 36.06
35 595 Toccaceli, Bryan SMR FSM Suzuki 33:25.227 9 3 laps 1 lap 2:36.709 4 35.607
36 152 Marini, Thomas SMR FSM Suzuki 24:44.976 7 5 laps 2 laps 2:38.503 6 35.204
37 191 Podmol, Filip CZE ACCR KTM 13:55.983 4 8 laps 3 laps 2:39.980 2 34.879
38 110 Verhaeghe, Alexis FRA FFM Kawasaki 14:29.680 4 8 laps 0:33.697 2:32.129 2 36.679

A voir aussi :

Le commentaires sont fermés.